Time;durP1;ratioP1;P1;durP2;ratioP2;P2;SDS_P1;SDS_P2;PMS_P1;PMS_P2;Temp;Humidity;BMP_temperature;BMP_pressure;BME280_temperature;BME280_humidity;BME280_pressure;Samples;Min_cycle;Max_cycle;Signal;HPM_P1;HPM_P2
2022/09/15 00:01:49;;;;;;;28.57;25.33;;;16.50;99.90;;;;;;5080810;28;20175;-92
2022/09/15 00:04:16;;;;;;;30.10;24.87;;;16.40;99.90;;;;;;5102236;28;20155;-90
2022/09/15 00:06:47;;;;;;;29.57;24.53;;;16.50;99.90;;;;;;5090061;28;20202;-90
2022/09/15 00:09:24;;;;;;;28.23;24.63;;;16.50;99.90;;;;;;5086471;28;20701;-91
2022/09/15 00:11:56;;;;;;;30.70;25.93;;;16.50;99.90;;;;;;5080072;28;20178;-91
2022/09/15 00:14:31;;;;;;;30.57;25.83;;;16.60;99.90;;;;;;5078474;28;20189;-91
2022/09/15 00:16:57;;;;;;;31.00;26.07;;;16.50;99.90;;;;;;5079509;28;20216;-91
2022/09/15 00:20:13;;;;;;;32.63;26.20;;;16.40;99.90;;;;;;5079571;28;20181;-91
2022/09/15 00:22:42;;;;;;;31.37;26.60;;;16.40;99.90;;;;;;5097359;28;20601;-91
2022/09/15 00:25:09;;;;;;;36.50;27.60;;;16.40;99.90;;;;;;5079071;28;20645;-91
2022/09/15 00:27:35;;;;;;;33.33;26.77;;;16.50;99.90;;;;;;5079186;28;20179;-91
2022/09/15 00:30:01;;;;;;;33.23;27.43;;;16.40;99.90;;;;;;5079405;28;20230;-91
2022/09/15 00:32:30;;;;;;;35.47;26.90;;;16.30;99.90;;;;;;5078995;28;20679;-91
2022/09/15 00:35:06;;;;;;;32.67;26.43;;;16.20;99.90;;;;;;5079202;28;20229;-91
2022/09/15 00:37:39;;;;;;;33.70;26.90;;;16.10;99.90;;;;;;5079570;28;20202;-91
2022/09/15 00:40:20;;;;;;;30.93;26.00;;;16.00;99.90;;;;;;5078549;28;20199;-91
2022/09/15 00:42:57;;;;;;;33.20;27.07;;;16.10;99.90;;;;;;5079113;28;20172;-91
2022/09/15 00:45:31;;;;;;;32.87;27.23;;;16.20;99.90;;;;;;5079462;28;20715;-91
2022/09/15 00:48:08;;;;;;;33.73;26.37;;;16.10;99.90;;;;;;5079484;28;20713;-92
2022/09/15 00:50:36;;;;;;;32.40;26.57;;;16.10;99.90;;;;;;5079105;28;20665;-92
2022/09/15 00:53:07;;;;;;;31.50;26.63;;;16.00;99.90;;;;;;5079581;28;20176;-91
2022/09/15 00:55:46;;;;;;;32.40;28.07;;;16.00;99.90;;;;;;5078561;28;20283;-92
2022/09/15 00:58:38;;;;;;;;;;;;;;;;;;;;;
2022/09/15 01:01:06;;;;;;;31.63;27.30;;;16.10;99.90;;;;;;5100033;28;20259;-93
2022/09/15 01:03:38;;;;;;;30.83;26.80;;;15.90;99.90;;;;;;5079531;28;20678;-92
2022/09/15 01:06:26;;;;;;;28.97;25.67;;;15.60;99.90;;;;;;5078790;28;20194;-91
2022/09/15 01:09:13;;;;;;;31.03;25.87;;;15.60;99.90;;;;;;5078760;28;20168;-93
2022/09/15 01:11:40;;;;;;;32.23;27.07;;;15.70;99.90;;;;;;5078183;28;20617;-91
2022/09/15 01:14:07;;;;;;;30.77;27.40;;;15.70;99.90;;;;;;5078447;28;20266;-91
2022/09/15 01:16:59;;;;;;;31.43;26.93;;;15.80;99.90;;;;;;5078841;28;20792;-92
2022/09/15 01:19:56;;;;;;;31.80;26.77;;;15.70;99.90;;;;;;5079137;28;20202;-91
2022/09/15 01:23:07;;;;;;;29.20;26.03;;;15.50;99.90;;;;;;5082168;28;20588;-91
2022/09/15 01:26:12;;;;;;;32.80;26.73;;;15.60;99.90;;;;;;5080595;28;20195;-90
2022/09/15 01:29:32;;;;;;;31.63;25.90;;;15.60;99.90;;;;;;5100557;28;20225;-91
2022/09/15 01:35:42;;;;;;;29.27;25.13;;;15.50;99.90;;;;;;5103135;28;20170;-91
2022/09/15 01:38:23;;;;;;;28.67;23.97;;;15.40;99.90;;;;;;5084083;28;20186;-91
2022/09/15 01:41:06;;;;;;;29.40;23.70;;;15.40;99.90;;;;;;5079804;28;20170;-91
2022/09/15 01:43:43;;;;;;;25.20;21.90;;;15.30;99.90;;;;;;5078954;28;20167;-90
2022/09/15 01:46:17;;;;;;;28.43;23.13;;;15.20;99.90;;;;;;5082810;28;20214;-90
2022/09/15 01:48:46;;;;;;;25.70;21.73;;;15.20;99.90;;;;;;5080829;28;20175;-91
2022/09/15 01:51:13;;;;;;;34.73;21.77;;;15.20;99.90;;;;;;5078647;28;20164;-91
2022/09/15 01:53:45;;;;;;;31.03;22.37;;;15.10;99.90;;;;;;5078585;28;20193;-90
2022/09/15 01:56:18;;;;;;;36.60;22.40;;;15.10;99.90;;;;;;5077450;28;20206;-90
2022/09/15 01:58:51;;;;;;;57.83;22.33;;;15.20;99.90;;;;;;5078110;28;20247;-91
2022/09/15 02:01:28;;;;;;;63.40;22.60;;;15.10;99.90;;;;;;5086173;28;20332;-90
2022/09/15 02:04:05;;;;;;;28.77;21.90;;;14.90;99.90;;;;;;5088708;28;20171;-90
2022/09/15 02:07:10;;;;;;;40.30;22.93;;;14.90;99.90;;;;;;5085524;28;20215;-92
2022/09/15 02:09:43;;;;;;;30.07;21.27;;;15.00;99.90;;;;;;5100282;28;20183;-91
2022/09/15 02:12:41;;;;;;;30.60;21.13;;;14.90;99.90;;;;;;5079425;28;20193;-90
2022/09/15 02:15:15;;;;;;;29.13;21.53;;;14.90;99.90;;;;;;5078869;28;20684;-90
2022/09/15 02:17:54;;;;;;;29.47;21.00;;;14.90;99.90;;;;;;5101134;28;20187;-91
2022/09/15 02:21:08;;;;;;;26.83;20.17;;;14.80;99.90;;;;;;5095994;28;20167;-91
2022/09/15 02:23:49;;;;;;;24.90;19.80;;;14.90;99.90;;;;;;5087900;28;20190;-91
2022/09/15 02:26:25;;;;;;;24.57;20.97;;;14.90;99.90;;;;;;5081791;28;20220;-93
2022/09/15 02:29:05;;;;;;;26.10;20.40;;;14.80;99.90;;;;;;5100386;28;20166;-90
2022/09/15 02:32:35;;;;;;;22.90;19.43;;;14.80;99.90;;;;;;5100992;28;20178;-90
2022/09/15 02:35:25;;;;;;;21.83;19.07;;;14.90;99.90;;;;;;5071544;28;20196;-91
2022/09/15 02:38:03;;;;;;;21.57;19.27;;;14.80;99.90;;;;;;5037211;28;20213;-91
2022/09/15 02:40:35;;;;;;;22.10;19.13;;;14.80;99.90;;;;;;5044366;28;20177;-91
2022/09/15 02:43:06;;;;;;;20.10;17.67;;;14.70;99.90;;;;;;5060058;28;20173;-93
2022/09/15 02:45:41;;;;;;;20.93;17.63;;;14.70;99.90;;;;;;5055741;28;20735;-90
2022/09/15 02:48:18;;;;;;;19.53;16.37;;;14.70;99.90;;;;;;5036849;28;20326;-91
2022/09/15 02:50:57;;;;;;;18.50;16.57;;;14.90;99.90;;;;;;5053188;28;20176;-91
2022/09/15 02:53:56;;;;;;;19.27;17.17;;;14.80;99.90;;;;;;5038868;28;20341;-91
2022/09/15 02:56:26;;;;;;;18.27;16.37;;;14.80;99.90;;;;;;5037204;28;20255;-89
2022/09/15 02:59:00;;;;;;;17.93;16.13;;;14.70;99.90;;;;;;5047459;28;20175;-91
2022/09/15 03:01:37;;;;;;;17.53;15.70;;;14.80;99.90;;;;;;5081625;28;20174;-89
2022/09/15 03:04:09;;;;;;;17.77;15.87;;;14.80;99.90;;;;;;5085310;28;20179;-89
2022/09/15 03:06:38;;;;;;;19.00;16.00;;;14.90;99.90;;;;;;5101422;28;20172;-89
2022/09/15 03:09:57;;;;;;;;;;;;;;;;;;;;;
2022/09/15 03:13:05;;;;;;;17.77;15.87;;;14.80;99.90;;;;;;5094329;28;20195;-91
2022/09/15 03:15:42;;;;;;;16.90;15.07;;;14.70;99.90;;;;;;5076394;28;20178;-92
2022/09/15 03:18:09;;;;;;;17.60;15.53;;;14.70;99.90;;;;;;5076344;28;20184;-91
2022/09/15 03:20:38;;;;;;;18.30;15.87;;;14.60;99.90;;;;;;5082264;28;20155;-90
2022/09/15 03:23:19;;;;;;;19.07;16.43;;;14.60;99.90;;;;;;5080069;28;20254;-91
2022/09/15 03:25:46;;;;;;;18.13;15.97;;;14.50;99.90;;;;;;5086810;28;20179;-90
2022/09/15 03:28:13;;;;;;;17.40;15.43;;;14.60;99.90;;;;;;5083918;28;20160;-90
2022/09/15 03:30:41;;;;;;;19.93;15.73;;;14.50;99.90;;;;;;5083541;28;20172;-91
2022/09/15 03:33:07;;;;;;;19.77;16.43;;;14.50;99.90;;;;;;5082139;28;20163;-90
2022/09/15 03:35:37;;;;;;;18.63;16.63;;;14.50;99.90;;;;;;5089987;28;20175;-90
2022/09/15 03:38:03;;;;;;;22.47;18.40;;;14.50;99.90;;;;;;5081604;28;20220;-91
2022/09/15 03:40:30;;;;;;;21.03;17.30;;;14.60;99.90;;;;;;5078808;28;20194;-91
2022/09/15 03:43:00;;;;;;;19.27;17.07;;;14.60;99.90;;;;;;5092294;28;20195;-91
2022/09/15 03:45:34;;;;;;;19.87;17.23;;;14.70;99.90;;;;;;5097041;28;20196;-92
2022/09/15 03:48:05;;;;;;;20.10;17.53;;;14.80;99.90;;;;;;5080664;28;20239;-91
2022/09/15 03:50:36;;;;;;;21.63;17.90;;;14.70;99.90;;;;;;5077511;28;20180;-91
2022/09/15 03:53:02;;;;;;;20.00;16.13;;;14.60;99.90;;;;;;5076916;28;20198;-91
2022/09/15 03:55:30;;;;;;;20.83;17.33;;;14.60;99.90;;;;;;5063090;28;20179;-92
2022/09/15 03:58:00;;;;;;;17.70;15.63;;;14.50;99.90;;;;;;5074800;28;20200;-93
2022/09/15 04:00:26;;;;;;;18.07;16.20;;;14.50;99.90;;;;;;5076331;28;20172;-93
2022/09/15 04:02:53;;;;;;;18.20;16.23;;;14.50;99.90;;;;;;5067016;28;20177;-93
2022/09/15 04:05:24;;;;;;;19.67;16.50;;;14.60;99.90;;;;;;5056557;28;20259;-92
2022/09/15 04:07:51;;;;;;;20.87;16.83;;;14.50;99.90;;;;;;5057286;28;20176;-92
2022/09/15 04:10:18;;;;;;;19.37;17.00;;;14.70;99.90;;;;;;5059070;28;20188;-93
2022/09/15 04:12:45;;;;;;;20.77;16.80;;;14.70;99.90;;;;;;5057619;28;20198;-93
2022/09/15 04:15:11;;;;;;;18.87;16.83;;;14.60;99.90;;;;;;5061767;28;20177;-94
2022/09/15 04:17:39;;;;;;;19.13;17.13;;;14.60;99.90;;;;;;5061106;28;20212;-93
2022/09/15 04:20:20;;;;;;;18.37;16.40;;;14.80;99.90;;;;;;5063022;28;20176;-93
2022/09/15 04:22:49;;;;;;;20.63;17.13;;;14.70;99.90;;;;;;5061240;28;20237;-92
2022/09/15 04:25:16;;;;;;;18.40;16.47;;;14.60;99.90;;;;;;5061341;28;20176;-92
2022/09/15 04:27:55;;;;;;;18.67;16.63;;;14.70;99.90;;;;;;5064420;28;20176;-91
2022/09/15 04:30:27;;;;;;;19.07;16.20;;;14.70;99.90;;;;;;5069448;28;20184;-92
2022/09/15 04:33:09;;;;;;;18.63;16.30;;;14.70;99.90;;;;;;5077394;28;20180;-92
2022/09/15 04:35:35;;;;;;;18.30;16.40;;;14.60;99.90;;;;;;5078185;28;20245;-91
2022/09/15 04:38:02;;;;;;;17.57;15.77;;;14.60;99.90;;;;;;5079262;28;20235;-91
2022/09/15 04:40:28;;;;;;;19.50;17.40;;;14.60;99.90;;;;;;5071387;28;20171;-92
2022/09/15 04:42:57;;;;;;;19.77;16.80;;;14.60;99.90;;;;;;5068146;28;20195;-92
2022/09/15 04:45:33;;;;;;;19.40;17.30;;;14.60;99.90;;;;;;5070712;28;20188;-91
2022/09/15 04:48:25;;;;;;;;;;;;;;;;;;;;;
2022/09/15 04:51:18;;;;;;;18.67;16.77;;;14.70;99.90;;;;;;5080298;28;20254;-92
2022/09/15 04:53:50;;;;;;;18.90;16.83;;;14.70;99.90;;;;;;5061653;28;20305;-91
2022/09/15 04:56:33;;;;;;;19.70;17.60;;;14.70;99.90;;;;;;5071402;28;20203;-91
2022/09/15 04:59:15;;;;;;;20.13;17.90;;;14.70;99.90;;;;;;5081031;28;20168;-93
2022/09/15 05:02:40;;;;;;;;;;;;;;;;;;;;;
2022/09/15 05:05:17;;;;;;;22.63;17.77;;;14.50;99.90;;;;;;5078816;28;20220;-92
2022/09/15 05:07:44;;;;;;;23.13;18.10;;;14.50;99.90;;;;;;5059292;28;20179;-92
2022/09/15 05:10:11;;;;;;;20.57;18.07;;;14.50;99.90;;;;;;5060013;28;20161;-90
2022/09/15 05:12:41;;;;;;;23.03;18.10;;;14.60;99.90;;;;;;5059939;28;20238;-91
2022/09/15 05:15:25;;;;;;;20.60;18.10;;;14.50;99.90;;;;;;5060953;28;20228;-90
2022/09/15 05:18:20;;;;;;;21.67;17.83;;;14.50;99.90;;;;;;5059447;28;20215;-91
2022/09/15 05:20:59;;;;;;;22.00;18.77;;;14.40;99.90;;;;;;5059199;28;20176;-92
2022/09/15 05:23:51;;;;;;;24.93;19.43;;;14.40;99.90;;;;;;5077860;28;20163;-91
2022/09/15 05:26:48;;;;;;;23.67;19.57;;;14.60;99.90;;;;;;5059500;28;20197;-92
2022/09/15 05:29:50;;;;;;;24.77;20.27;;;14.70;99.90;;;;;;5062799;28;20268;-92
2022/09/15 05:33:10;;;;;;;22.67;19.33;;;14.70;99.90;;;;;;5059936;28;20176;-91
2022/09/15 05:36:00;;;;;;;22.83;19.17;;;14.60;99.90;;;;;;4958814;28;20424;-91
2022/09/15 05:39:26;;;;;;;23.27;19.80;;;14.60;99.90;;;;;;4989658;28;20263;-93
2022/09/15 05:45:29;;;;;;;22.13;19.07;;;14.70;99.90;;;;;;4962902;28;20203;-95
2022/09/15 05:48:38;;;;;;;22.33;19.13;;;14.50;99.90;;;;;;5013809;28;20341;-93
2022/09/15 05:51:41;;;;;;;24.43;19.63;;;14.50;99.90;;;;;;5092393;28;20163;-92
2022/09/15 05:54:43;;;;;;;23.03;20.07;;;14.50;99.90;;;;;;5069642;28;20172;-93
2022/09/15 05:57:39;;;;;;;26.10;20.07;;;14.50;99.90;;;;;;5064024;28;20200;-92
2022/09/15 06:00:13;;;;;;;24.53;20.40;;;14.50;99.90;;;;;;5061687;28;20578;-95
2022/09/15 06:03:11;;;;;;;22.07;19.53;;;14.60;99.90;;;;;;5062259;28;20512;-92
2022/09/15 06:05:46;;;;;;;26.30;19.33;;;14.80;99.90;;;;;;5050551;28;20184;-92
2022/09/15 06:08:18;;;;;;;23.83;19.40;;;14.80;99.90;;;;;;5075952;28;20223;-94
2022/09/15 06:10:50;;;;;;;23.40;20.43;;;14.80;99.90;;;;;;5077750;28;20238;-93
2022/09/15 06:16:49;;;;;;;25.73;19.20;;;14.80;99.90;;;;;;5102672;28;20336;-91
2022/09/15 06:20:20;;;;;;;;;;;;;;;;;;;;;
2022/09/15 06:23:25;;;;;;;25.63;19.70;;;15.00;99.90;;;;;;5082296;28;20627;-91
2022/09/15 06:25:55;;;;;;;22.67;20.27;;;15.00;99.90;;;;;;5064964;28;20184;-91
2022/09/15 06:28:59;;;;;;;23.87;19.60;;;15.00;99.90;;;;;;5066742;28;20168;-91
2022/09/15 06:31:34;;;;;;;24.43;19.33;;;15.00;99.90;;;;;;5062153;28;20168;-92
2022/09/15 06:34:04;;;;;;;23.90;20.57;;;15.00;99.90;;;;;;5066928;28;20270;-93
2022/09/15 06:40:23;;;;;;;25.07;21.03;;;15.20;99.90;;;;;;5098507;28;20144;-91
2022/09/15 06:43:19;;;;;;;24.47;21.73;;;15.50;99.90;;;;;;5081423;28;20175;-90
2022/09/15 06:49:58;;;;;;;24.57;21.47;;;15.60;99.90;;;;;;5053156;28;20186;-92
2022/09/15 06:53:20;;;;;;;24.07;21.10;;;15.60;99.90;;;;;;5081163;28;20149;-92
2022/09/15 06:56:24;;;;;;;28.00;21.13;;;15.60;99.90;;;;;;5081046;28;20166;-92
2022/09/15 06:59:53;;;;;;;25.00;20.90;;;15.60;99.90;;;;;;5081665;28;20235;-91
2022/09/15 07:02:37;;;;;;;25.67;20.57;;;15.60;99.90;;;;;;5065871;28;20174;-94
2022/09/15 07:05:45;;;;;;;24.00;20.63;;;15.60;99.90;;;;;;5097336;28;20184;-92
2022/09/15 07:08:28;;;;;;;32.50;21.90;;;15.80;99.90;;;;;;5098391;28;20156;-91
2022/09/15 07:11:22;;;;;;;28.40;21.37;;;15.90;99.90;;;;;;5080894;28;20171;-92
2022/09/15 07:14:04;;;;;;;28.57;23.43;;;16.10;99.90;;;;;;5080686;28;20183;-95
2022/09/15 07:16:35;;;;;;;37.53;28.57;;;16.20;99.90;;;;;;5080596;28;20202;-94
2022/09/15 07:19:10;;;;;;;31.27;23.60;;;16.60;99.90;;;;;;5048720;28;20183;-95
2022/09/15 07:21:47;;;;;;;25.97;21.70;;;16.40;99.90;;;;;;5079989;28;20173;-93
2022/09/15 07:28:09;;;;;;;26.37;21.20;;;16.40;99.90;;;;;;5098432;28;20174;-92
2022/09/15 07:31:09;;;;;;;23.40;20.87;;;16.50;99.90;;;;;;5077315;28;20160;-92
2022/09/15 07:33:41;;;;;;;25.23;20.17;;;16.30;99.90;;;;;;5078523;28;20168;-96
2022/09/15 07:36:19;;;;;;;23.07;20.40;;;16.40;99.90;;;;;;5080519;28;20152;-94
2022/09/15 07:39:28;;;;;;;28.73;21.40;;;16.50;99.90;;;;;;5079601;28;20211;-93
2022/09/15 07:42:00;;;;;;;25.10;21.63;;;16.70;99.90;;;;;;5078235;28;20202;-94
2022/09/15 07:44:31;;;;;;;26.00;21.57;;;16.70;99.90;;;;;;5097725;28;20168;-93
2022/09/15 07:47:30;;;;;;;26.80;21.63;;;16.70;99.90;;;;;;5080673;28;20186;-93
2022/09/15 07:49:57;;;;;;;24.77;21.87;;;16.60;99.90;;;;;;5088515;28;20194;-93
2022/09/15 07:52:52;;;;;;;22.20;19.80;;;16.70;99.90;;;;;;5077013;28;20152;-91
2022/09/15 08:02:20;;;;;;;26.33;19.43;;;16.60;99.90;;;;;;5026974;28;20194;-91
2022/09/15 08:04:49;;;;;;;23.47;20.23;;;16.90;99.90;;;;;;5003964;28;20228;-91
2022/09/15 08:07:17;;;;;;;25.30;19.73;;;17.00;99.90;;;;;;5004872;28;20198;-91
2022/09/15 08:10:20;;;;;;;24.03;20.03;;;17.00;99.90;;;;;;5006214;28;20179;-92
2022/09/15 08:13:03;;;;;;;27.10;20.77;;;17.10;99.90;;;;;;5004728;28;20247;-92
2022/09/15 08:16:23;;;;;;;23.70;20.00;;;17.20;99.90;;;;;;5004092;28;20214;-92
2022/09/15 08:19:07;;;;;;;23.13;19.60;;;17.30;99.90;;;;;;5004847;28;20184;-92
2022/09/15 08:21:40;;;;;;;21.37;18.27;;;17.40;99.50;;;;;;5003651;28;20238;-93
2022/09/15 08:24:29;;;;;;;22.37;18.87;;;17.60;97.90;;;;;;5003667;28;20589;-93
2022/09/15 08:27:01;;;;;;;21.33;19.10;;;17.70;97.60;;;;;;5002520;28;20185;-93
2022/09/15 08:29:41;;;;;;;22.30;18.33;;;17.90;96.90;;;;;;5002266;28;20168;-92
2022/09/15 08:32:07;;;;;;;21.90;17.73;;;18.10;96.00;;;;;;5038640;28;20187;-92
2022/09/15 08:34:36;;;;;;;20.83;17.53;;;18.20;95.10;;;;;;5066271;28;20182;-92
2022/09/15 08:37:10;;;;;;;21.53;18.53;;;18.30;93.90;;;;;;5064566;28;20217;-92
2022/09/15 08:39:37;;;;;;;24.13;18.37;;;18.40;93.50;;;;;;5081619;28;20166;-92
2022/09/15 08:42:29;;;;;;;17.83;15.90;;;18.40;93.10;;;;;;5060183;28;20194;-92
2022/09/15 08:45:19;;;;;;;18.70;16.53;;;18.50;90.20;;;;;;5062533;28;20263;-92
2022/09/15 08:48:14;;;;;;;19.70;16.80;;;18.50;89.10;;;;;;5066822;28;20152;-91
2022/09/15 08:50:51;;;;;;;22.27;19.00;;;18.40;90.10;;;;;;5100083;28;20617;-92
2022/09/15 08:54:04;;;;;;;27.17;19.13;;;18.30;91.40;;;;;;5080953;28;20180;-92
2022/09/15 08:57:00;;;;;;;24.13;18.37;;;18.20;92.40;;;;;;5091804;28;20209;-93
2022/09/15 08:59:35;;;;;;;23.47;18.13;;;18.00;94.70;;;;;;5065788;28;20238;-93
2022/09/15 09:02:23;;;;;;;24.83;19.33;;;17.90;95.90;;;;;;5064362;28;20183;-93
2022/09/15 09:05:28;;;;;;;24.87;18.57;;;17.80;97.50;;;;;;5063127;28;20218;-94
2022/09/15 09:11:34;;;;;;;18.07;13.60;;;18.00;97.70;;;;;;5080394;28;20181;-92
2022/09/15 09:14:32;;;;;;;18.33;14.13;;;17.80;96.10;;;;;;5062615;28;20172;-92
2022/09/15 09:17:39;;;;;;;19.03;14.70;;;17.80;96.90;;;;;;5042268;28;20236;-92
2022/09/15 09:20:41;;;;;;;15.43;13.80;;;17.80;97.30;;;;;;5048936;28;20183;-92
2022/09/15 09:23:12;;;;;;;16.53;13.50;;;17.80;96.80;;;;;;5012477;28;20232;-92
2022/09/15 09:25:42;;;;;;;16.50;14.53;;;18.00;97.30;;;;;;5041801;28;20192;-93
2022/09/15 09:28:27;;;;;;;16.50;13.00;;;18.10;96.20;;;;;;5040996;28;20176;-92
2022/09/15 09:31:08;;;;;;;17.87;14.67;;;18.20;95.60;;;;;;5041728;28;20573;-93
2022/09/15 09:33:44;;;;;;;18.97;12.67;;;18.30;94.70;;;;;;5040139;28;20196;-92
2022/09/15 09:36:24;;;;;;;17.40;13.70;;;18.20;94.60;;;;;;5041344;28;20173;-92
2022/09/15 09:39:00;;;;;;;20.17;13.10;;;18.40;94.70;;;;;;5040871;28;20228;-92
2022/09/15 09:41:35;;;;;;;17.00;11.17;;;18.50;93.40;;;;;;5044065;28;20177;-92
2022/09/15 09:44:04;;;;;;;12.33;9.50;;;18.60;90.30;;;;;;5043413;28;20175;-92
2022/09/15 09:46:30;;;;;;;14.40;9.17;;;18.60;86.60;;;;;;5042923;28;20203;-94
2022/09/15 09:49:01;;;;;;;12.67;9.90;;;18.60;84.80;;;;;;5042171;28;20171;-92
2022/09/15 09:51:52;;;;;;;11.70;8.73;;;18.80;87.90;;;;;;5043647;28;20200;-92
2022/09/15 09:54:31;;;;;;;11.83;8.30;;;18.90;82.90;;;;;;5044258;28;20240;-93
2022/09/15 09:57:13;;;;;;;12.43;9.07;;;19.00;80.10;;;;;;5043251;28;20210;-95
2022/09/15 09:59:49;;;;;;;9.87;6.57;;;19.10;79.60;;;;;;5042979;28;20186;-92
2022/09/15 10:02:26;;;;;;;14.63;6.93;;;19.00;70.90;;;;;;5042303;28;20189;-92
2022/09/15 10:05:13;;;;;;;8.17;3.80;;;19.10;70.00;;;;;;5041393;28;20177;-93
2022/09/15 10:07:49;;;;;;;10.03;5.57;;;19.20;62.70;;;;;;5044562;28;20186;-93
2022/09/15 10:10:33;;;;;;;7.87;5.40;;;19.40;65.80;;;;;;5053264;28;20185;-92
2022/09/15 10:13:02;;;;;;;9.40;4.40;;;19.60;58.10;;;;;;5057453;28;20164;-91
2022/09/15 10:15:32;;;;;;;10.43;5.00;;;19.60;54.50;;;;;;5048537;28;20193;-91
2022/09/15 10:18:34;;;;;;;8.27;4.50;;;19.50;54.70;;;;;;5080538;28;20213;-93
2022/09/15 10:21:13;;;;;;;6.87;4.30;;;19.60;50.30;;;;;;5095120;28;20206;-91
2022/09/15 10:27:31;;;;;;;8.63;5.33;;;19.30;44.00;;;;;;5082756;28;20244;-93
2022/09/15 10:30:44;;;;;;;8.93;5.47;;;19.10;57.70;;;;;;5065959;28;20223;-92
2022/09/15 10:33:47;;;;;;;9.57;4.73;;;18.90;60.80;;;;;;5095492;28;20163;-92
2022/09/15 10:36:38;;;;;;;12.40;4.60;;;18.90;61.20;;;;;;5080505;28;20187;-93
2022/09/15 10:39:58;;;;;;;8.53;4.67;;;18.90;59.40;;;;;;5064309;28;20220;-93
2022/09/15 10:43:08;;;;;;;10.03;3.87;;;19.10;52.50;;;;;;5081084;28;20180;-92
2022/09/15 10:46:17;;;;;;;5.87;3.60;;;19.20;49.30;;;;;;5080854;28;20185;-92
2022/09/15 10:49:33;;;;;;;7.00;3.50;;;19.50;39.90;;;;;;5081137;28;20217;-93
2022/09/15 10:52:35;;;;;;;7.97;3.23;;;19.70;28.50;;;;;;5078737;28;20210;-95
2022/09/15 10:55:34;;;;;;;7.00;3.40;;;19.70;29.70;;;;;;5078324;28;20188;-95
2022/09/15 10:58:45;;;;;;;5.30;3.07;;;19.80;23.10;;;;;;5076879;28;20208;-96
2022/09/15 11:01:36;;;;;;;5.00;2.27;;;19.60;3.00;;;;;;5068541;28;20189;-94
2022/09/15 11:04:32;;;;;;;5.20;2.70;;;19.30;1.00;;;;;;5079050;28;20171;-96
2022/09/15 11:07:21;;;;;;;6.33;2.40;;;19.30;1.00;;;;;;5076732;28;20162;-96
2022/09/15 11:10:26;;;;;;;5.83;3.50;;;19.40;1.00;;;;;;5096249;28;20156;-94
2022/09/15 11:13:12;;;;;;;7.77;3.20;;;19.10;1.00;;;;;;5080036;28;20192;-93
2022/09/15 11:19:46;;;;;;;5.97;2.50;;;19.20;1.00;;;;;;5098220;28;20202;-93
2022/09/15 11:22:51;;;;;;;6.37;2.10;;;19.20;1.00;;;;;;5080161;28;20177;-91
2022/09/15 11:26:10;;;;;;;6.37;2.50;;;19.00;1.00;;;;;;5082266;28;20170;-96
2022/09/15 11:36:17;;;;;;;6.00;2.50;;;19.30;1.00;;;;;;5085041;28;20242;-94
2022/09/15 11:39:55;;;;;;;6.33;2.37;;;19.20;1.00;;;;;;5097516;28;20184;-94
2022/09/15 11:42:53;;;;;;;6.00;1.80;;;19.10;1.00;;;;;;5099706;28;20163;-95
2022/09/15 11:45:46;;;;;;;4.73;1.70;;;18.50;25.40;;;;;;5082416;28;20193;-96
2022/09/15 11:49:12;;;;;;;3.10;1.40;;;18.00;40.60;;;;;;5098605;28;20190;-94
2022/09/15 11:52:11;;;;;;;4.97;1.37;;;17.60;49.40;;;;;;5082328;28;20194;-93
2022/09/15 11:55:27;;;;;;;4.93;1.30;;;17.50;52.50;;;;;;5097898;28;20594;-96
2022/09/15 11:58:47;;;;;;;3.97;1.30;;;17.40;39.90;;;;;;5098413;28;20561;-96
2022/09/15 12:01:24;;;;;;;5.97;1.50;;;17.30;42.60;;;;;;5078845;28;20684;-95
2022/09/15 12:04:50;;;;;;;2.67;1.10;;;17.20;38.90;;;;;;5098699;28;20172;-95
2022/09/15 12:11:17;;;;;;;3.67;1.20;;;17.40;33.60;;;;;;5017561;28;20187;-96
2022/09/15 12:14:28;;;;;;;4.03;1.07;;;17.40;36.30;;;;;;5080146;28;20175;-95
2022/09/15 12:17:37;;;;;;;7.43;1.63;;;17.60;34.40;;;;;;5069269;28;20220;-94
2022/09/15 12:23:34;;;;;;;4.87;1.60;;;17.90;29.70;;;;;;5097870;28;20167;-96
2022/09/15 12:26:22;;;;;;;3.57;1.40;;;17.90;28.70;;;;;;5094253;28;20172;-95
2022/09/15 12:29:01;;;;;;;7.03;1.33;;;17.90;20.50;;;;;;5075678;28;20238;-96
2022/09/15 12:32:06;;;;;;;3.03;1.30;;;17.80;15.00;;;;;;5095567;28;20154;-94
2022/09/15 12:35:21;;;;;;;4.20;1.37;;;17.80;13.20;;;;;;5078124;28;20244;-95
2022/09/15 12:37:57;;;;;;;3.83;1.40;;;17.80;12.80;;;;;;5072214;28;20220;-95
2022/09/15 12:40:34;;;;;;;5.57;1.40;;;18.00;9.30;;;;;;5082704;28;20195;-93
2022/09/15 12:43:30;;;;;;;4.13;1.77;;;18.10;10.80;;;;;;5094374;28;20189;-96
2022/09/15 12:46:18;;;;;;;3.90;1.57;;;18.30;7.30;;;;;;5078680;28;20204;-93
2022/09/15 12:48:47;;;;;;;5.63;1.47;;;18.40;1.00;;;;;;5081432;28;20185;-92
2022/09/15 12:51:31;;;;;;;3.93;1.00;;;18.20;1.00;;;;;;5082081;28;20164;-95
2022/09/15 12:54:49;;;;;;;3.90;1.17;;;18.10;1.00;;;;;;5098941;28;20169;-93
2022/09/15 12:58:05;;;;;;;3.63;1.07;;;18.20;1.00;;;;;;5080117;28;20226;-92
2022/09/15 13:01:40;;;;;;;;;;;;;;;;;;;;;
2022/09/15 13:04:51;;;;;;;3.43;1.40;;;18.50;1.00;;;;;;5064711;28;20190;-91
2022/09/15 13:07:56;;;;;;;6.00;1.53;;;18.50;1.00;;;;;;5083279;28;20171;-92
2022/09/15 13:10:39;;;;;;;3.77;1.30;;;18.70;1.00;;;;;;5087833;28;20195;-92
2022/09/15 13:13:16;;;;;;;5.17;1.20;;;18.80;1.00;;;;;;5099899;28;20211;-92
2022/09/15 13:16:21;;;;;;;3.73;1.10;;;18.70;1.00;;;;;;5082996;28;20598;-95
2022/09/15 13:20:12;;;;;;;;;;;;;;;;;;;;;
2022/09/15 13:23:23;;;;;;;4.63;1.47;;;18.70;1.00;;;;;;4987766;28;20230;-92
2022/09/15 13:29:39;;;;;;;3.90;1.10;;;19.10;1.00;;;;;;4989431;28;20197;-92
2022/09/15 13:32:36;;;;;;;4.33;1.27;;;19.10;1.00;;;;;;4966780;28;20660;-92
2022/09/15 13:35:41;;;;;;;6.53;1.50;;;19.40;1.00;;;;;;5067178;28;20178;-92
2022/09/15 13:42:03;;;;;;;4.83;1.50;;;20.00;1.00;;;;;;5087439;28;20163;-92
2022/09/15 13:45:27;;;;;;;;;;;;;;;;;;;;;
2022/09/15 13:48:35;;;;;;;3.97;1.40;;;20.10;1.00;;;;;;5061907;28;20282;-92
2022/09/15 13:51:42;;;;;;;6.47;1.60;;;20.30;1.00;;;;;;5087978;28;20183;-93
2022/09/15 13:55:02;;;;;;;4.87;1.43;;;20.30;1.00;;;;;;5088894;28;20198;-92
2022/09/15 14:01:16;;;;;;;5.67;1.33;;;20.20;1.00;;;;;;5092551;28;20170;-91
2022/09/15 14:04:27;;;;;;;3.70;1.50;;;19.90;1.00;;;;;;5102706;28;20242;-90
2022/09/15 14:07:51;;;;;;;5.10;1.50;;;19.90;1.00;;;;;;5126684;28;20623;-90
2022/09/15 14:10:25;;;;;;;5.20;1.43;;;19.90;1.00;;;;;;5109493;28;20177;-90
2022/09/15 14:13:01;;;;;;;6.77;1.70;;;20.10;1.00;;;;;;5106578;28;20204;-91
2022/09/15 14:15:31;;;;;;;4.17;1.70;;;20.30;1.00;;;;;;5048274;28;20226;-90
2022/09/15 14:18:21;;;;;;;4.73;1.57;;;20.50;1.00;;;;;;5077854;28;20214;-92
2022/09/15 14:24:24;;;;;;;4.27;1.60;;;20.10;1.00;;;;;;5084395;28;20162;-92
2022/09/15 14:33:58;;;;;;;5.37;1.87;;;19.70;1.00;;;;;;5087830;28;20197;-93
2022/09/15 14:36:42;;;;;;;6.90;1.80;;;19.70;1.00;;;;;;5094068;28;20245;-92
2022/09/15 14:42:46;;;;;;;5.90;2.33;;;19.80;1.00;;;;;;5134708;28;20191;-92
2022/09/15 14:45:50;;;;;;;5.33;2.17;;;19.70;1.00;;;;;;5118775;28;20196;-93
2022/09/15 14:52:01;;;;;;;4.93;1.80;;;19.50;1.00;;;;;;5736837;22;20220;-93
2022/09/15 14:55:08;;;;;;;5.93;1.53;;;19.10;1.00;;;;;;5114135;28;20252;-92
2022/09/15 15:07:54;;;;;;;6.10;1.43;;;18.80;1.00;;;;;;5118494;28;20189;-92
2022/09/15 15:10:57;;;;;;;5.43;1.50;;;18.70;1.00;;;;;;5107598;28;20186;-92
2022/09/15 15:17:04;;;;;;;6.23;1.40;;;18.50;1.00;;;;;;5118552;28;20241;-92
2022/09/15 15:20:13;;;;;;;5.23;1.60;;;18.40;6.90;;;;;;5097419;28;20191;-94
2022/09/15 15:26:48;;;;;;;6.43;1.83;;;18.10;14.20;;;;;;5080181;28;20181;-92
2022/09/15 15:29:59;;;;;;;4.50;1.50;;;18.00;13.80;;;;;;5083197;28;20261;-93
2022/09/15 15:32:34;;;;;;;4.33;1.53;;;17.90;17.00;;;;;;5008563;28;20243;-93
2022/09/15 15:35:16;;;;;;;5.27;1.53;;;17.80;19.60;;;;;;4987417;28;20182;-91
2022/09/15 15:37:46;;;;;;;4.67;1.40;;;17.80;17.00;;;;;;5068594;28;20210;-91
2022/09/15 15:40:19;;;;;;;4.03;1.90;;;17.80;15.50;;;;;;5087244;28;20171;-91
2022/09/15 15:43:29;;;;;;;7.70;1.73;;;17.80;15.80;;;;;;5092465;28;20235;-90
2022/09/15 15:46:41;;;;;;;8.20;1.30;;;17.80;16.70;;;;;;5075005;28;20226;-91
2022/09/15 15:49:19;;;;;;;7.53;1.67;;;17.80;20.00;;;;;;5077336;28;20224;-90
2022/09/15 15:56:00;;;;;;;5.43;1.57;;;17.80;19.70;;;;;;5076556;28;20160;-91
2022/09/15 15:58:38;;;;;;;5.83;1.73;;;17.90;15.40;;;;;;5052751;28;20227;-92
2022/09/15 16:04:48;;;;;;;7.07;1.77;;;17.90;15.60;;;;;;5050568;28;20176;-92
2022/09/15 16:07:54;;;;;;;;;;;;;;;;;;;;;
2022/09/15 16:10:46;;;;;;;6.23;1.90;;;17.70;21.30;;;;;;5045034;28;20178;-91